CST,Max TemperatureF,Mean TemperatureF,Min TemperatureF,Max Dew PointF,MeanDew PointF,Min DewpointF,Max Humidity, Mean Humidity, Min Humidity, Max Sea Level PressureIn, Mean Sea Level PressureIn, Min Sea Level PressureIn, Max VisibilityMiles, Mean VisibilityMiles, Min VisibilityMiles, Max Wind SpeedMPH, Mean Wind SpeedMPH, Max Gust SpeedMPH,PrecipitationIn, CloudCover, Events, WindDirDegrees
2014-1-1,7,2,-2,-2,-7,-13,65,61,57,30.35,30.32,30.27,10,10,10,15,10,21,0.00,7,,7
2014-1-2,8,2,-3,0,-5,-13,77,65,57,30.39,30.31,30.24,10,8,1,20,11,23,0.00,4,Snow,342
2014-1-3,18,1,-15,10,-4,-22,79,71,58,30.39,30.13,29.76,10,8,2,32,9,39,0.00,1,,172
2014-1-4,32,23,14,26,15,4,82,70,60,30.07,29.82,29.66,10,10,3,28,16,37,0.00,6,Snow,242
2014-1-5,14,3,-8,4,-9,-21,68,55,42,30.17,30.09,30.02,10,10,10,17,12,24,0.00,6,,322
2014-1-6,-8,-14,-19,-21,-27,-34,61,53,43,30.13,30.09,30.02,10,9,2,17,12,25,0.00,2,Snow,266
2014-1-7,0,-10,-19,-14,-20,-28,70,60,50,30.25,30.17,30.11,10,10,10,16,10,,0.00,0,,222
2014-1-8,6,-2,-11,-9,-12,-18,77,66,49,30.47,30.37,30.24,10,10,10,7,2,,0.00,0,,249
2014-1-9,22,4,-14,19,-2,-21,89,72,58,30.49,30.33,30.10,10,10,5,10,4,,0.00,4,,137
2014-1-10,35,28,22,36,29,19,100,97,89,30.09,29.81,29.45,7,2,0,17,10,22,0.17,8,Fog-Rain-Snow,149
2014-1-11,35,32,28,36,28,23,100,88,77,29.72,29.51,29.40,10,7,0,14,8,23,0.06,8,Fog-Snow,266
2014-1-12,37,31,25,32,27,23,94,80,63,29.75,29.63,29.54,10,9,5,25,14,34,0.00,3,,187
2014-1-13,39,30,21,32,27,16,92,81,67,29.71,29.58,29.51,10,10,10,12,8,18,0.00,5,,232
2014-1-14,32,24,16,32,22,12,97,86,65,29.87,29.62,29.48,10,5,0,22,11,32,0.00,8,Rain-Snow,211
2014-1-15,16,12,7,12,6,1,83,74,70,30.04,29.93,29.67,10,9,2,21,9,26,0.00,6,Snow,243
2014-1-16,31,22,12,29,18,5,92,79,58,29.67,29.52,29.40,10,8,0,23,15,29,0.00,8,Snow,221
2014-1-17,20,14,9,13,8,0,80,74,65,29.91,29.81,29.67,10,8,1,12,8,16,0.00,8,Snow,273
2014-1-18,17,10,3,11,5,-1,86,77,66,29.88,29.82,29.76,10,10,3,8,3,,0.00,4,Snow,101
2014-1-19,32,18,5,24,16,1,88,76,61,29.78,29.58,29.47,10,10,10,18,11,24,0.00,3,,221
2014-1-20,29,16,4,26,8,-9,92,75,52,30.21,29.92,29.60,10,9,4,22,9,31,0.00,8,Snow,17
2014-1-21,3,-2,-6,-10,-12,-15,69,61,50,30.32,30.24,30.12,10,10,10,18,9,25,0.00,1,,300
2014-1-22,9,3,-3,1,-7,-15,76,64,51,30.13,29.98,29.84,10,7,2,17,9,24,0.00,5,Snow,245
2014-1-23,5,-1,-7,-9,-13,-18,66,58,49,30.52,30.41,30.15,10,10,7,15,11,24,0.00,1,,282
2014-1-24,28,9,-9,26,2,-19,92,67,56,30.40,29.81,29.36,10,8,1,31,17,40,0.00,6,Snow,211
2014-1-25,29,14,0,26,-3,-13,91,50,37,29.81,29.60,29.35,10,10,4,22,11,31,0.00,2,Snow,282
2014-1-26,21,12,2,14,2,-9,78,70,49,29.77,29.49,29.34,10,5,0,21,9,31,0.00,8,Snow,216
2014-1-27,2,-5,-13,-6,-20,-25,68,51,39,30.35,30.16,29.79,10,10,3,14,11,24,0.00,1,Snow,273
2014-1-28,1,-8,-17,-14,-19,-26,65,57,45,30.34,30.24,30.11,10,10,10,21,10,23,0.00,0,,230
2014-1-29,22,9,-4,6,-6,-15,65,55,44,30.11,30.01,29.83,10,10,10,22,13,29,0.00,0,,207
2014-1-30,30,22,14,26,14,5,89,67,51,29.91,29.69,29.54,10,9,0,23,17,31,0.00,5,Snow,205
2014-1-31,13,6,0,3,-4,-7,75,63,54,30.13,30.07,29.92,10,10,10,9,3,,0.00,0,,287